This is the latest recevied weather packets stored in our database for station/object KC3BHK-2. If no packets are shown the sender has not sent any weather packets the latest 10 day(s).
| Time | Temp. | Humidity | Pressure | Rain* | Wind** | Luminosity | Snow |
|---|---|---|---|---|---|---|---|
| 1777576470 | 19.44° C | - | - | 0 mm | 4.02 m/s, 290° | - | - |
| 1777576165 | 20.56° C | - | - | 0 mm | 2.24 m/s, 300° | - | - |
| 1777575556 | 18.33° C | - | - | 0 mm | 4.02 m/s, 294° | - | - |
| 1777575249 | 20° C | - | - | 0 mm | 2.68 m/s, 278° | - | - |
| 1777574944 | 19.44° C | - | - | 0 mm | 4.92 m/s, 280° | - | - |
| 1777574335 | 19.44° C | - | - | 0 mm | 1.34 m/s, 326° | - | - |
| 1777574030 | 21.11° C | - | - | 0 mm | 4.47 m/s, 278° | - | - |
| 1777573726 | 20.56° C | - | - | 0 mm | 4.92 m/s, 242° | - | - |
| 1777573418 | 20° C | - | - | 0 mm | 6.71 m/s, 263° | - | - |
| 1777573114 | 21.11° C | - | - | 0 mm | 2.68 m/s, 336° | - | - |
| 1777572809 | 18.89° C | - | - | 0 mm | 4.02 m/s, 269° | - | - |
| 1777572505 | 19.44° C | - | - | 0 mm | 4.92 m/s, 276° | - | - |
| 1777572200 | 17.78° C | - | - | 0 mm | 6.71 m/s, 284° | - | - |
| 1777571895 | 20° C | - | - | 0 mm | 4.47 m/s, 252° | - | - |
| 1777571588 | 19.44° C | - | - | 0 mm | 6.26 m/s, 218° | - | - |
| 1777571283 | 18.89° C | - | - | 0 mm | 3.13 m/s, 259° | - | - |
| 1777570979 | 19.44° C | - | - | 0 mm | 5.36 m/s, 262° | - | - |
| 1777570674 | 18.89° C | - | - | 0 mm | 4.47 m/s, 267° | - | - |
| 1777570370 | 18.89° C | - | - | 0 mm | 5.36 m/s, 278° | - | - |
| 1777570065 | 17.78° C | - | - | 0 mm | 3.13 m/s, 273° | - | - |
| 1777569758 | 18.33° C | - | - | 0 mm | 5.81 m/s, 278° | - | - |
| 1777569453 | 20° C | - | - | 0 mm | 5.36 m/s, 288° | - | - |
| 1777569147 | 19.44° C | - | - | 0 mm | 0.89 m/s, 342° | - | - |
| 1777568843 | 20.56° C | - | - | 0 mm | 5.81 m/s, 260° | - | - |
| 1777568234 | 18.33° C | - | - | 0 mm | 5.36 m/s, 273° | - | - |
* Rain latest hour (hover to see other rain measurements)
** Current wind speed in m/s (hover to see current wind gust speed)